createdAt,value
2018-10-07T00:00:23.558Z,94.69
2018-10-07T00:01:23.570Z,94.4
2018-10-07T00:02:23.584Z,94.21
2018-10-07T00:03:23.578Z,94.12
2018-10-07T00:04:23.583Z,94.79
2018-10-07T00:05:23.609Z,95.07
2018-10-07T00:06:23.606Z,94.59
2018-10-07T00:07:23.612Z,95.07
2018-10-07T00:08:23.626Z,94.31
2018-10-07T00:09:23.651Z,94.31
2018-10-07T00:10:23.638Z,95.07
2018-10-07T00:11:23.441Z,94.02
2018-10-07T00:12:23.650Z,94.4
2018-10-07T00:13:23.406Z,94.35
2018-10-07T00:14:23.668Z,94.4
2018-10-07T00:15:23.673Z,93.93
2018-10-07T00:16:23.678Z,93.49
2018-10-07T00:17:23.687Z,93.54
2018-10-07T00:18:23.441Z,94.12
2018-10-07T00:19:23.699Z,94.21
2018-10-07T00:20:23.704Z,94.17
2018-10-07T00:21:23.715Z,94.45
2018-10-07T00:22:23.478Z,94.26
2018-10-07T00:23:23.761Z,94.35
2018-10-07T00:24:23.743Z,93.97
2018-10-07T00:25:23.499Z,94.26
2018-10-07T00:26:23.554Z,93.68
2018-10-07T00:27:23.766Z,92.44
2018-10-07T00:28:23.769Z,92.87
2018-10-07T00:29:23.780Z,93.63
2018-10-07T00:30:23.793Z,93.73
2018-10-07T00:31:23.796Z,93.93
2018-10-07T00:32:23.806Z,93.3
2018-10-07T00:33:23.814Z,92.77
2018-10-07T00:34:23.828Z,92.97
2018-10-07T00:35:23.840Z,92.58
2018-10-07T00:36:23.839Z,92.68
2018-10-07T00:37:23.595Z,93.63
2018-10-07T00:38:23.856Z,93.4
2018-10-07T00:39:23.863Z,93.11
2018-10-07T00:40:23.875Z,93.35
2018-10-07T00:41:23.929Z,93.44
2018-10-07T00:42:23.885Z,93.44
2018-10-07T00:43:23.893Z,93.63
2018-10-07T00:44:23.902Z,93.83
2018-10-07T00:45:23.910Z,93.63
2018-10-07T00:46:23.919Z,93.63
2018-10-07T00:47:23.669Z,93.88
2018-10-07T00:48:23.947Z,93.68
2018-10-07T00:49:23.685Z,93.88
2018-10-07T00:50:23.945Z,93.3
2018-10-07T00:51:23.953Z,93.3
2018-10-07T00:52:23.962Z,93.49
2018-10-07T00:53:23.972Z,93.3
2018-10-07T00:54:23.989Z,92.72
2018-10-07T00:55:23.733Z,91.86
2018-10-07T00:56:23.808Z,92.05
2018-10-07T00:57:23.994Z,91.96
2018-10-07T00:58:24.002Z,92.44
2018-10-07T00:59:24.010Z,92.54
2018-10-07T01:00:24.022Z,93.01
2018-10-07T01:01:24.027Z,92.05
2018-10-07T01:02:24.035Z,91.86
2018-10-07T01:03:24.039Z,92.05
2018-10-07T01:04:24.052Z,91.77
2018-10-07T01:05:24.071Z,91.67
2018-10-07T01:06:24.069Z,91.67
2018-10-07T01:07:24.078Z,91.96
2018-10-07T01:08:24.075Z,92.05
2018-10-07T01:09:24.078Z,92.63
2018-10-07T01:10:24.086Z,92.63
2018-10-07T01:11:24.145Z,92.54
2018-10-07T01:12:24.103Z,92.63
2018-10-07T01:13:24.108Z,93.49
2018-10-07T01:14:24.118Z,92.44
2018-10-07T01:15:24.123Z,92.05
2018-10-07T01:16:24.132Z,92.24
2018-10-07T01:17:24.147Z,91.96
2018-10-07T01:18:24.156Z,92.63
2018-10-07T01:19:24.160Z,92.82
2018-10-07T01:20:23.923Z,92.05
2018-10-07T01:21:24.176Z,91.09
2018-10-07T01:22:24.185Z,91.86
2018-10-07T01:23:24.198Z,90.71
2018-10-07T01:24:24.202Z,91.28
2018-10-07T01:25:24.220Z,90.9
2018-10-07T01:26:25.318Z,91
2018-10-07T01:27:24.231Z,91
2018-10-07T01:28:24.233Z,91.28
2018-10-07T01:29:24.248Z,90.14
2018-10-07T01:30:24.272Z,89.65
2018-10-07T01:31:24.262Z,90.42
2018-10-07T01:32:24.289Z,90.9
2018-10-07T01:33:24.277Z,90.52
2018-10-07T01:34:24.285Z,90.04
2018-10-07T01:35:24.307Z,91.05
2018-10-07T01:36:24.298Z,90.38
2018-10-07T01:37:24.310Z,91.34
2018-10-07T01:38:24.314Z,91.34
2018-10-07T01:39:24.327Z,90.95
2018-10-07T01:40:24.080Z,91.24
2018-10-07T01:41:24.135Z,91.34
2018-10-07T01:42:24.347Z,90.09
2018-10-07T01:43:24.357Z,90.47
2018-10-07T01:44:24.363Z,90.19
2018-10-07T01:45:24.375Z,90.95
2018-10-07T01:46:24.378Z,90.76
2018-10-07T01:47:24.133Z,90.57
2018-10-07T01:48:24.394Z,90.57
2018-10-07T01:49:24.159Z,90.57
2018-10-07T01:50:24.417Z,90.19
2018-10-07T01:51:24.414Z,90.19
2018-10-07T01:52:24.170Z,90.86
2018-10-07T01:53:24.431Z,90.95
2018-10-07T01:54:24.181Z,91.14
2018-10-07T01:55:24.448Z,90.86
2018-10-07T01:56:24.505Z,91.28
2018-10-07T01:57:24.471Z,90.71
2018-10-07T01:58:24.477Z,90.42
2018-10-07T01:59:24.655Z,90.14
2018-10-07T02:00:24.484Z,89.94
2018-10-07T02:01:24.239Z,90.42
2018-10-07T02:02:24.505Z,90.04
2018-10-07T02:03:24.505Z,90.04
2018-10-07T02:04:24.522Z,89.94
2018-10-07T02:05:24.528Z,90.14
2018-10-07T02:06:24.532Z,90.33
2018-10-07T02:07:24.545Z,90.42
2018-10-07T02:08:24.544Z,90.61
2018-10-07T02:09:24.554Z,90.42
2018-10-07T02:10:24.548Z,90.61
2018-10-07T02:11:24.606Z,90.33
2018-10-07T02:12:24.564Z,89.94
2018-10-07T02:13:24.571Z,90.04
2018-10-07T02:14:24.580Z,90.04
2018-10-07T02:15:24.586Z,90.33
2018-10-07T02:16:24.694Z,89.85
2018-10-07T02:17:24.606Z,90.04
2018-10-07T02:18:24.364Z,89.37
2018-10-07T02:19:24.622Z,90.23
2018-10-07T02:20:24.629Z,90.14
2018-10-07T02:21:24.690Z,90.14
2018-10-07T02:22:24.646Z,90.33
2018-10-07T02:23:24.656Z,90.81
2018-10-07T02:24:24.659Z,91
2018-10-07T02:25:24.669Z,90.9
2018-10-07T02:26:24.674Z,91.33
2018-10-07T02:27:24.690Z,90.81
2018-10-07T02:28:24.698Z,91.28
2018-10-07T02:29:24.705Z,90.66
2018-10-07T02:30:24.463Z,90.81
2018-10-07T02:31:24.723Z,90.61
2018-10-07T02:32:24.731Z,90.52
2018-10-07T02:33:24.738Z,90.14
2018-10-07T02:34:24.750Z,89.61
2018-10-07T02:35:24.754Z,89.27
2018-10-07T02:36:24.810Z,89.75
2018-10-07T02:37:24.790Z,89.47
2018-10-07T02:38:24.782Z,88.31
2018-10-07T02:39:24.780Z,88.22
2018-10-07T02:40:24.785Z,88.89
2018-10-07T02:41:24.800Z,88.7
2018-10-07T02:42:24.805Z,88.98
2018-10-07T02:43:24.812Z,88.31
2018-10-07T02:44:24.815Z,88.98
2018-10-07T02:45:24.825Z,89.65
2018-10-07T02:46:24.686Z,88.6
2018-10-07T02:47:24.590Z,89.56
2018-10-07T02:48:24.862Z,89.37
2018-10-07T02:49:24.863Z,89.37
2018-10-07T02:50:24.870Z,89.08
2018-10-07T02:51:24.926Z,89.37
2018-10-07T02:52:24.885Z,89.75
2018-10-07T02:53:25.373Z,89.85
2018-10-07T02:54:24.895Z,89.27
2018-10-07T02:55:24.656Z,89.47
2018-10-07T02:56:24.966Z,89.47
2018-10-07T02:57:24.669Z,90.71
2018-10-07T02:58:24.927Z,90.33
2018-10-07T02:59:24.939Z,90.33
2018-10-07T03:00:24.948Z,90.14
2018-10-07T03:01:24.956Z,90.71
2018-10-07T03:02:24.991Z,90.61
2018-10-07T03:03:24.975Z,91
2018-10-07T03:04:25.002Z,90.04
2018-10-07T03:05:24.989Z,90.81
2018-10-07T03:06:25.045Z,90.52
2018-10-07T03:07:25.002Z,90.61
2018-10-07T03:08:25.011Z,90.04
2018-10-07T03:09:24.766Z,89.56
2018-10-07T03:10:25.027Z,89.56
2018-10-07T03:11:25.031Z,89.37
2018-10-07T03:12:25.037Z,89.56
2018-10-07T03:13:24.792Z,89.47
2018-10-07T03:14:24.817Z,88.89
2018-10-07T03:15:25.062Z,88.89
2018-10-07T03:16:25.169Z,89.75
2018-10-07T03:17:25.074Z,89.56
2018-10-07T03:18:25.083Z,89.37
2018-10-07T03:19:25.083Z,89.27
2018-10-07T03:20:25.091Z,89.47
2018-10-07T03:21:25.144Z,89.37
2018-10-07T03:22:25.102Z,88.89
2018-10-07T03:23:25.105Z,88.79
2018-10-07T03:24:25.117Z,88.22
2018-10-07T03:25:25.129Z,88.22
2018-10-07T03:26:25.132Z,88.6
2018-10-07T03:27:25.144Z,88.41
2018-10-07T03:28:25.146Z,88.31
2018-10-07T03:29:25.399Z,88.51
2018-10-07T03:30:24.919Z,89.27
2018-10-07T03:31:25.188Z,88.98
2018-10-07T03:32:25.192Z,88.89
2018-10-07T03:33:25.197Z,88.7
2018-10-07T03:34:25.217Z,89.75
2018-10-07T03:35:25.210Z,89.37
2018-10-07T03:36:25.277Z,88.79
2018-10-07T03:37:24.976Z,89.08
2018-10-07T03:38:25.241Z,89.08
2018-10-07T03:39:25.241Z,88.89
2018-10-07T03:40:25.246Z,88.7
2018-10-07T03:41:25.265Z,89.56
2018-10-07T03:42:25.262Z,89.75
2018-10-07T03:43:25.274Z,88.79
2018-10-07T03:44:25.276Z,88.98
2018-10-07T03:45:25.285Z,88.6
2018-10-07T03:46:25.298Z,88.31
2018-10-07T03:47:25.301Z,88.51
2018-10-07T03:48:25.315Z,88.12
2018-10-07T03:49:25.312Z,87.84
2018-10-07T03:50:25.327Z,87.93
2018-10-07T03:51:25.381Z,88.02
2018-10-07T03:52:25.336Z,88.79
2018-10-07T03:53:25.350Z,88.6
2018-10-07T03:54:25.357Z,88.41
2018-10-07T03:55:25.364Z,88.27
2018-10-07T03:56:25.369Z,88.27
2018-10-07T03:57:25.130Z,88.37
2018-10-07T03:58:25.389Z,88.37
2018-10-07T03:59:25.416Z,88.84
2018-10-07T04:00:25.401Z,89.27
2018-10-07T04:01:25.409Z,89.32
2018-10-07T04:02:25.418Z,88.75
2018-10-07T04:03:25.424Z,89.27
2018-10-07T04:04:25.435Z,89.27
2018-10-07T04:05:25.444Z,88.79
2018-10-07T04:06:25.498Z,88.94
2018-10-07T04:07:25.456Z,88.6
2018-10-07T04:08:25.461Z,88.89
2018-10-07T04:09:25.466Z,89.27
2018-10-07T04:10:25.475Z,88.22
2018-10-07T04:11:25.496Z,88.51
2018-10-07T04:12:25.489Z,88.31
2018-10-07T04:13:25.245Z,88.31
2018-10-07T04:14:25.513Z,88.22
2018-10-07T04:15:25.263Z,88.31
2018-10-07T04:16:25.529Z,88.31
2018-10-07T04:17:25.276Z,88.41
2018-10-07T04:18:25.536Z,88.41
2018-10-07T04:19:25.543Z,88.12
2018-10-07T04:20:25.547Z,87.74
2018-10-07T04:21:25.703Z,88.51
2018-10-07T04:22:25.561Z,88.6
2018-10-07T04:23:25.566Z,87.93
2018-10-07T04:24:25.577Z,88.51
2018-10-07T04:25:25.331Z,88.6
2018-10-07T04:26:25.590Z,88.12
2018-10-07T04:27:25.599Z,88.31
2018-10-07T04:28:25.603Z,88.31
2018-10-07T04:29:25.413Z,87.84
2018-10-07T04:30:25.619Z,88.02
2018-10-07T04:31:25.629Z,87.93
2018-10-07T04:32:25.634Z,88.31
2018-10-07T04:33:25.643Z,88.02
2018-10-07T04:34:25.656Z,88.31
2018-10-07T04:35:25.656Z,88.41
2018-10-07T04:36:25.466Z,88.6
2018-10-07T04:37:25.692Z,88.31
2018-10-07T04:38:25.433Z,88.98
2018-10-07T04:39:25.691Z,88.79
2018-10-07T04:40:25.696Z,88.79
2018-10-07T04:41:25.712Z,89.37
2018-10-07T04:42:25.719Z,89.56
2018-10-07T04:43:25.735Z,89.37
2018-10-07T04:44:25.737Z,88.98
2018-10-07T04:45:25.483Z,88.6
2018-10-07T04:46:25.939Z,89.08
2018-10-07T04:47:25.752Z,88.51
2018-10-07T04:48:25.511Z,88.51
2018-10-07T04:49:25.770Z,88.6
2018-10-07T04:50:25.803Z,88.41
2018-10-07T04:51:25.828Z,88.22
2018-10-07T04:52:25.798Z,87.64
2018-10-07T04:53:25.541Z,88.02
2018-10-07T04:54:25.801Z,88.7
2018-10-07T04:55:25.809Z,88.79
2018-10-07T04:56:25.868Z,88.6
2018-10-07T04:57:25.579Z,87.93
2018-10-07T04:58:25.838Z,88.51
2018-10-07T04:59:25.588Z,88.51
2018-10-07T05:00:26.096Z,88.89
2018-10-07T05:01:25.855Z,88.41
2018-10-07T05:02:25.863Z,88.79
2018-10-07T05:03:25.882Z,88.22
2018-10-07T05:04:25.626Z,87.84
2018-10-07T05:05:25.891Z,88.51
2018-10-07T05:06:25.898Z,87.74
2018-10-07T05:07:25.907Z,87.93
2018-10-07T05:08:25.914Z,88.51
2018-10-07T05:09:25.914Z,88.89
2018-10-07T05:10:25.927Z,88.51
2018-10-07T05:11:25.988Z,88.12
2018-10-07T05:12:25.762Z,88.12
2018-10-07T05:13:25.951Z,88.22
2018-10-07T05:14:25.956Z,88.31
2018-10-07T05:15:25.960Z,88.6
2018-10-07T05:16:25.966Z,87.93
2018-10-07T05:17:25.975Z,88.12
2018-10-07T05:18:26.031Z,87.93
2018-10-07T05:19:25.990Z,87.74
2018-10-07T05:20:26.003Z,88.22
2018-10-07T05:21:26.004Z,88.6
2018-10-07T05:22:26.016Z,88.12
2018-10-07T05:23:26.022Z,88.41
2018-10-07T05:24:26.041Z,88.6
2018-10-07T05:25:26.038Z,88.22
2018-10-07T05:26:26.096Z,88.6
2018-10-07T05:27:26.070Z,88.51
2018-10-07T05:28:26.058Z,88.79
2018-10-07T05:29:26.065Z,88.51
2018-10-07T05:30:25.825Z,88.31
2018-10-07T05:31:26.079Z,87.84
2018-10-07T05:32:26.088Z,88.31
2018-10-07T05:33:25.946Z,87.84
2018-10-07T05:34:26.095Z,87.64
2018-10-07T05:35:26.101Z,87.74
2018-10-07T05:36:26.114Z,88.22
2018-10-07T05:37:26.120Z,87.74
2018-10-07T05:38:26.132Z,87.84
2018-10-07T05:39:25.894Z,87.35
2018-10-07T05:40:26.145Z,87.64
2018-10-07T05:41:26.215Z,88.02
2018-10-07T05:42:26.159Z,87.84
2018-10-07T05:43:26.170Z,87.26
2018-10-07T05:44:26.488Z,87.74
2018-10-07T05:45:26.188Z,88.02
2018-10-07T05:46:26.190Z,88.02
2018-10-07T05:47:25.950Z,88.41
2018-10-07T05:48:26.206Z,88.6
2018-10-07T05:49:26.219Z,88.41
2018-10-07T05:50:26.226Z,88.22
2018-10-07T05:51:26.229Z,88.31
2018-10-07T05:52:26.248Z,88.22
2018-10-07T05:53:26.244Z,88.12
2018-10-07T05:54:26.252Z,88.02
2018-10-07T05:55:26.262Z,88.22
2018-10-07T05:56:26.330Z,88.51
2018-10-07T05:57:26.272Z,88.79
2018-10-07T05:58:26.283Z,88.79
2018-10-07T05:59:26.301Z,88.51
2018-10-07T06:00:26.297Z,88.41
2018-10-07T06:01:26.154Z,88.79
2018-10-07T06:02:26.314Z,88.12
2018-10-07T06:03:26.321Z,87.16
2018-10-07T06:04:26.330Z,87.74
2018-10-07T06:05:26.335Z,88.22
2018-10-07T06:06:26.110Z,87.74
2018-10-07T06:07:26.348Z,88.12
2018-10-07T06:08:26.356Z,87.93
2018-10-07T06:09:26.110Z,87.26
2018-10-07T06:10:26.375Z,87.35
2018-10-07T06:11:26.430Z,87.64
2018-10-07T06:12:26.406Z,87.16
2018-10-07T06:13:26.392Z,87.45
2018-10-07T06:14:26.401Z,87.35
2018-10-07T06:15:26.410Z,87.35
2018-10-07T06:16:26.166Z,87.16
2018-10-07T06:17:26.424Z,87.35
2018-10-07T06:18:26.431Z,86.97
2018-10-07T06:19:26.442Z,87.59
2018-10-07T06:20:26.447Z,87.4
2018-10-07T06:21:26.586Z,87.3
2018-10-07T06:22:26.464Z,86.92
2018-10-07T06:23:26.470Z,86.92
2018-10-07T06:24:26.480Z,86.82
2018-10-07T06:25:26.483Z,86.72
2018-10-07T06:26:26.534Z,85.63
2018-10-07T06:27:26.562Z,86.21
2018-10-07T06:28:26.503Z,86.01
2018-10-07T06:29:26.258Z,86.21
2018-10-07T06:30:26.267Z,86.01
2018-10-07T06:31:26.275Z,85.72
2018-10-07T06:32:26.536Z,85.44
2018-10-07T06:33:26.547Z,85.25
2018-10-07T06:34:26.299Z,86.3
2018-10-07T06:35:26.308Z,86.4
2018-10-07T06:36:26.572Z,86.11
2018-10-07T06:37:26.568Z,85.92
2018-10-07T06:38:26.327Z,86.01
2018-10-07T06:39:26.585Z,86.3
2018-10-07T06:40:26.347Z,85.53
2018-10-07T06:41:26.656Z,85.63
2018-10-07T06:42:26.361Z,84.95
2018-10-07T06:43:26.639Z,85.05
2018-10-07T06:44:26.628Z,85.72
2018-10-07T06:45:26.751Z,85.72
2018-10-07T06:46:26.644Z,85.53
2018-10-07T06:47:26.399Z,85.63
2018-10-07T06:48:26.664Z,85.53
2018-10-07T06:49:26.414Z,85.44
2018-10-07T06:50:26.679Z,85.63
2018-10-07T06:51:26.682Z,85.25
2018-10-07T06:52:26.688Z,85.63
2018-10-07T06:53:26.445Z,85.82
2018-10-07T06:54:26.450Z,85.92
2018-10-07T06:55:26.713Z,85.44
2018-10-07T06:56:26.768Z,85.34
2018-10-07T06:57:26.726Z,85.34
2018-10-07T06:58:26.479Z,85.53
2018-10-07T06:59:26.814Z,85.05
2018-10-07T07:00:26.757Z,85.53
2018-10-07T07:01:26.760Z,85.15
2018-10-07T07:02:26.768Z,84.61
2018-10-07T07:03:26.777Z,85.19
2018-10-07T07:04:26.783Z,84.91
2018-10-07T07:05:26.537Z,84.42
2018-10-07T07:06:26.950Z,85.1
2018-10-07T07:07:26.804Z,84.61
2018-10-07T07:08:26.814Z,84.33
2018-10-07T07:09:26.822Z,84.42
2018-10-07T07:10:26.827Z,84.33
2018-10-07T07:11:26.904Z,84.14
2018-10-07T07:12:26.842Z,83.37
2018-10-07T07:13:26.851Z,83.56
2018-10-07T07:14:26.861Z,83.37
2018-10-07T07:15:26.873Z,83.37
2018-10-07T07:16:26.872Z,83.75
2018-10-07T07:17:26.882Z,83.85
2018-10-07T07:18:26.637Z,83.56
2018-10-07T07:19:26.900Z,83.37
2018-10-07T07:20:26.908Z,83.37
2018-10-07T07:21:26.919Z,83.56
2018-10-07T07:22:26.937Z,83.08
2018-10-07T07:23:26.679Z,82.51
2018-10-07T07:24:26.943Z,83.08
2018-10-07T07:25:26.693Z,82.51
2018-10-07T07:26:27.004Z,82.31
2018-10-07T07:27:26.961Z,82.31
2018-10-07T07:28:26.973Z,82.79
2018-10-07T07:29:26.724Z,82.51
2018-10-07T07:30:26.985Z,82.31
2018-10-07T07:31:27.282Z,82.41
2018-10-07T07:32:26.995Z,83.08
2018-10-07T07:33:27.005Z,82.98
2018-10-07T07:34:26.760Z,82.7
2018-10-07T07:35:27.019Z,82.7
2018-10-07T07:36:27.032Z,82.31
2018-10-07T07:37:27.037Z,82.31
2018-10-07T07:38:27.044Z,82.21
2018-10-07T07:39:27.051Z,82.31
2018-10-07T07:40:27.059Z,82.12
2018-10-07T07:41:27.073Z,82.26
2018-10-07T07:42:27.273Z,82.35
2018-10-07T07:43:27.091Z,82.16
2018-10-07T07:44:27.091Z,81.78
2018-10-07T07:45:27.103Z,81.3
2018-10-07T07:46:27.160Z,81.49
2018-10-07T07:47:26.864Z,81.68
2018-10-07T07:48:26.870Z,81.1
2018-10-07T07:49:26.880Z,81.1
2018-10-07T07:50:27.138Z,80.91
2018-10-07T07:51:26.895Z,80.43
2018-10-07T07:52:27.156Z,80.66
2018-10-07T07:53:26.912Z,80.38
2018-10-07T07:54:26.921Z,80.47
2018-10-07T07:55:27.182Z,80.28
2018-10-07T07:56:27.240Z,80.19
2018-10-07T07:57:27.198Z,79.9
2018-10-07T07:58:27.207Z,79.71
2018-10-07T07:59:27.217Z,79.99
2018-10-07T08:00:27.224Z,79.32
2018-10-07T08:01:26.978Z,79.65
2018-10-07T08:02:27.232Z,79.27
2018-10-07T08:03:27.241Z,79.27
2018-10-07T08:04:27.257Z,78.3
2018-10-07T08:05:27.259Z,78.3
2018-10-07T08:06:27.474Z,78.11
2018-10-07T08:07:27.278Z,78.11
2018-10-07T08:08:27.289Z,78.02
2018-10-07T08:09:27.050Z,77.76
2018-10-07T08:10:27.310Z,77.38
2018-10-07T08:11:27.370Z,77.19
2018-10-07T08:12:27.330Z,77.29
2018-10-07T08:13:27.341Z,76.81
2018-10-07T08:14:27.341Z,76.04
2018-10-07T08:15:27.350Z,75.84
2018-10-07T08:16:27.358Z,75.27
2018-10-07T08:17:27.531Z,75.17
2018-10-07T08:18:27.381Z,75.75
2018-10-07T08:19:27.128Z,75.31
2018-10-07T08:20:27.409Z,75.11
2018-10-07T08:21:27.404Z,74.98
2018-10-07T08:22:27.418Z,75.21
2018-10-07T08:23:27.584Z,75.37
2018-10-07T08:24:27.434Z,74.54
2018-10-07T08:25:27.443Z,75.17
2018-10-07T08:26:27.499Z,74.79
2018-10-07T08:27:27.207Z,74.88
2018-10-07T08:28:27.215Z,74.79
2018-10-07T08:29:27.244Z,74.69
2018-10-07T08:30:27.485Z,74.98
2018-10-07T08:31:27.240Z,74.79
2018-10-07T08:32:27.499Z,75.17
2018-10-07T08:33:27.509Z,75.07
2018-10-07T08:34:27.539Z,74.6
2018-10-07T08:35:27.547Z,74.21
2018-10-07T08:36:27.543Z,74.11
2018-10-07T08:37:27.293Z,73.63
2018-10-07T08:38:27.561Z,74.11
2018-10-07T08:39:27.622Z,74.11
2018-10-07T08:40:27.582Z,74.3
2018-10-07T08:41:27.633Z,74.11
2018-10-07T08:42:27.341Z,73.63
2018-10-07T08:43:27.603Z,74.21
2018-10-07T08:44:27.360Z,74.69
2018-10-07T08:45:27.618Z,74.4
2018-10-07T08:46:27.629Z,74.21
2018-10-07T08:47:27.385Z,74.11
2018-10-07T08:48:27.647Z,73.73
2018-10-07T08:49:27.662Z,73.44
2018-10-07T08:50:27.666Z,73.92
2018-10-07T08:51:27.675Z,74.21
2018-10-07T08:52:27.686Z,74.02
2018-10-07T08:53:27.690Z,73.73
2018-10-07T08:54:27.445Z,73.73
2018-10-07T08:55:27.707Z,73.63
2018-10-07T08:56:27.973Z,73.25
2018-10-07T08:57:27.727Z,73.63
2018-10-07T08:58:27.736Z,74.21
2018-10-07T08:59:27.741Z,74.21
2018-10-07T09:00:27.751Z,74.98
2018-10-07T09:01:27.816Z,74.6
2018-10-07T09:02:27.771Z,74.4
2018-10-07T09:03:27.779Z,74.4
2018-10-07T09:04:27.809Z,74.4
2018-10-07T09:05:27.798Z,74.3
2018-10-07T09:06:27.554Z,74.5
2018-10-07T09:07:27.819Z,74.21
2018-10-07T09:08:27.821Z,74.6
2018-10-07T09:09:27.867Z,74.69
2018-10-07T09:10:27.840Z,74.4
2018-10-07T09:11:27.900Z,74.6
2018-10-07T09:12:27.859Z,74.6
2018-10-07T09:13:27.873Z,74.79
2018-10-07T09:14:27.921Z,75.56
2018-10-07T09:15:27.894Z,74.3
2018-10-07T09:16:28.963Z,74.05
2018-10-07T09:17:27.903Z,74.21
2018-10-07T09:18:27.913Z,74.34
2018-10-07T09:19:27.669Z,74.25
2018-10-07T09:20:27.680Z,73.09
2018-10-07T09:21:27.946Z,73.42
2018-10-07T09:22:27.948Z,72.84
2018-10-07T09:23:27.957Z,73.03
2018-10-07T09:24:27.714Z,72.55
2018-10-07T09:25:27.976Z,72.55
2018-10-07T09:26:27.984Z,71.88
2018-10-07T09:27:28.040Z,72.45
2018-10-07T09:28:28.001Z,72.17
2018-10-07T09:29:28.018Z,71.78
2018-10-07T09:30:28.020Z,70.92
2018-10-07T09:31:28.081Z,71.2
2018-10-07T09:32:28.229Z,71.69
2018-10-07T09:33:28.048Z,71.69
2018-10-07T09:34:27.806Z,71.59
2018-10-07T09:35:28.068Z,71.49
2018-10-07T09:36:28.095Z,71.59
2018-10-07T09:37:28.087Z,71.69
2018-10-07T09:38:28.089Z,71.2
2018-10-07T09:39:28.179Z,71.2
2018-10-07T09:40:28.105Z,71.43
2018-10-07T09:41:28.176Z,71.11
2018-10-07T09:42:27.902Z,70.76
2018-10-07T09:43:27.897Z,69.89
2018-10-07T09:44:27.891Z,70.18
2018-10-07T09:45:28.155Z,70.95
2018-10-07T09:46:28.213Z,70.72
2018-10-07T09:47:28.173Z,70.95
2018-10-07T09:48:28.188Z,71.01
2018-10-07T09:49:28.199Z,71.72
2018-10-07T09:50:28.216Z,71.62
2018-10-07T09:51:28.226Z,71.04
2018-10-07T09:52:28.501Z,70.37
2018-10-07T09:53:27.984Z,70.18
2018-10-07T09:54:28.250Z,70.18
2018-10-07T09:55:28.261Z,70.86
2018-10-07T09:56:28.265Z,70.47
2018-10-07T09:57:28.277Z,70.56
2018-10-07T09:58:28.031Z,70.18
2018-10-07T09:59:28.291Z,70.21
2018-10-07T10:00:28.300Z,70.12
2018-10-07T10:01:28.534Z,69.45
2018-10-07T10:02:28.318Z,69.35
2018-10-07T10:03:28.338Z,68.96
2018-10-07T10:04:28.455Z,69.45
2018-10-07T10:05:28.348Z,69.15
2018-10-07T10:06:28.157Z,69.31
2018-10-07T10:07:28.121Z,69.99
2018-10-07T10:08:28.381Z,69.89
2018-10-07T10:09:28.394Z,69.41
2018-10-07T10:10:28.398Z,69.41
2018-10-07T10:11:28.747Z,69.25
2018-10-07T10:12:28.418Z,68.68
2018-10-07T10:13:28.432Z,68.19
2018-10-07T10:14:28.452Z,68.68
2018-10-07T10:15:28.456Z,67.94
2018-10-07T10:16:28.509Z,67.84
2018-10-07T10:17:28.567Z,67.36
2018-10-07T10:18:28.481Z,67.1
2018-10-07T10:19:28.505Z,67.16
2018-10-07T10:20:28.507Z,66.78
2018-10-07T10:21:28.512Z,66.39
2018-10-07T10:22:28.528Z,66.49
2018-10-07T10:23:28.531Z,67.16
2018-10-07T10:24:28.543Z,66.97
2018-10-07T10:25:28.549Z,67.16
2018-10-07T10:26:28.561Z,67.74
2018-10-07T10:27:28.572Z,67.36
2018-10-07T10:28:28.588Z,67.65
2018-10-07T10:29:28.598Z,67.84
2018-10-07T10:30:28.602Z,66.97
2018-10-07T10:31:28.408Z,66.78
2018-10-07T10:32:28.629Z,66.3
2018-10-07T10:33:28.631Z,66.33
2018-10-07T10:34:28.642Z,66.62
2018-10-07T10:35:28.652Z,66.43
2018-10-07T10:36:28.660Z,66.43
2018-10-07T10:37:28.673Z,66.52
2018-10-07T10:38:28.683Z,66.33
2018-10-07T10:39:28.724Z,66.2
2018-10-07T10:40:28.722Z,66.11
2018-10-07T10:41:28.709Z,66.43
2018-10-07T10:42:28.720Z,66.49
2018-10-07T10:43:28.726Z,65.85
2018-10-07T10:44:28.489Z,65.66
2018-10-07T10:45:28.748Z,64.92
2018-10-07T10:46:28.813Z,64.82
2018-10-07T10:47:28.792Z,64.18
2018-10-07T10:48:28.531Z,64.18
2018-10-07T10:49:28.543Z,63.79
2018-10-07T10:50:28.804Z,63.79
2018-10-07T10:51:28.824Z,63.79
2018-10-07T10:52:28.834Z,64.05
2018-10-07T10:53:28.844Z,63.98
2018-10-07T10:54:28.853Z,64.56
2018-10-07T10:55:28.629Z,64.82
2018-10-07T10:56:28.870Z,64.86
2018-10-07T10:57:28.628Z,64.56
2018-10-07T10:58:28.894Z,63.7
2018-10-07T10:59:28.904Z,62.28
2018-10-07T11:00:28.914Z,61.7
2018-10-07T11:01:29.077Z,61.6
2018-10-07T11:02:28.958Z,61.15
2018-10-07T11:03:28.699Z,61.05
2018-10-07T11:04:29.074Z,61.25
2018-10-07T11:05:28.971Z,61.54
2018-10-07T11:06:28.828Z,60.69
2018-10-07T11:07:28.997Z,60.31
2018-10-07T11:08:29.003Z,59.6
2018-10-07T11:09:28.764Z,59.99
2018-10-07T11:10:29.027Z,60.47
2018-10-07T11:11:29.038Z,60.57
2018-10-07T11:12:29.113Z,60.47
2018-10-07T11:13:29.058Z,60.18
2018-10-07T11:14:29.067Z,60.18
2018-10-07T11:15:28.889Z,60.02
2018-10-07T11:16:29.137Z,59.73
2018-10-07T11:17:28.855Z,59.92
2018-10-07T11:18:29.117Z,58.95
2018-10-07T11:19:29.285Z,58.98
2018-10-07T11:20:29.137Z,58.8
2018-10-07T11:21:29.148Z,58.4
2018-10-07T11:22:29.159Z,58.24
2018-10-07T11:23:29.173Z,57.66
2018-10-07T11:24:28.931Z,57.28
2018-10-07T11:25:28.945Z,57.56
2018-10-07T11:26:29.207Z,58.27
2018-10-07T11:27:29.235Z,57.4
2018-10-07T11:28:29.235Z,57.14
2018-10-07T11:29:29.285Z,55.2
2018-10-07T11:30:29.256Z,54.81
2018-10-07T11:31:29.316Z,54.64
2018-10-07T11:32:29.281Z,54.26
2018-10-07T11:33:29.294Z,54.16
2018-10-07T11:34:29.304Z,54.45
2018-10-07T11:35:29.316Z,54.45
2018-10-07T11:36:29.328Z,54.58
2018-10-07T11:37:29.341Z,53.24
2018-10-07T11:38:29.101Z,52.59
2018-10-07T11:39:29.369Z,51.14
2018-10-07T11:40:29.126Z,51.23
2018-10-07T11:41:29.395Z,50.26
2018-10-07T11:42:29.406Z,50.36
2018-10-07T11:43:29.419Z,49.8
2018-10-07T11:44:29.179Z,49.51
2018-10-07T11:45:29.195Z,48.75
2018-10-07T11:46:29.513Z,48.57
2018-10-07T11:47:29.221Z,48.1
2018-10-07T11:48:29.490Z,47.34
2018-10-07T11:49:29.501Z,46.3
2018-10-07T11:50:29.268Z,45.81
2018-10-07T11:51:29.583Z,45.84
2018-10-07T11:52:29.550Z,45.84
2018-10-07T11:53:29.567Z,45.37
2018-10-07T11:54:29.577Z,44.89
2018-10-07T11:55:29.592Z,44.98
2018-10-07T11:56:29.608Z,46.01
2018-10-07T11:57:29.371Z,45.91
2018-10-07T11:58:29.641Z,46.77
2018-10-07T11:59:29.402Z,47.98
2018-10-07T12:00:29.670Z,47.71
2018-10-07T12:01:29.782Z,47.71
2018-10-07T12:02:29.524Z,48.3
2018-10-07T12:03:29.473Z,48
2018-10-07T12:04:29.728Z,48
2018-10-07T12:05:29.757Z,48.1
2018-10-07T12:06:29.559Z,47.61
2018-10-07T12:07:29.786Z,47.61
2018-10-07T12:08:29.793Z,47.52
2018-10-07T12:09:29.813Z,47.03
2018-10-07T12:10:29.570Z,47.81
2018-10-07T12:11:29.838Z,48.1
2018-10-07T12:12:29.856Z,47.69
2018-10-07T12:13:29.883Z,48.08
2018-10-07T12:14:29.880Z,47.98
2018-10-07T12:15:29.897Z,48.44
2018-10-07T12:16:30.117Z,49.22
2018-10-07T12:17:29.670Z,48.83
2018-10-07T12:18:29.940Z,49.87
2018-10-07T12:19:29.953Z,50.26
2018-10-07T12:20:29.967Z,50.26
2018-10-07T12:21:30.030Z,51.11
2018-10-07T12:22:29.994Z,50.92
2018-10-07T12:23:30.013Z,50.07
2018-10-07T12:24:30.024Z,50.46
2018-10-07T12:25:30.042Z,49.58
2018-10-07T12:26:30.147Z,50.16
2018-10-07T12:27:30.068Z,49.87
2018-10-07T12:28:30.075Z,49.39
2018-10-07T12:29:30.092Z,49.56
2018-10-07T12:30:30.113Z,50.24
2018-10-07T12:31:30.064Z,50.34
2018-10-07T12:32:30.133Z,50.92
2018-10-07T12:33:30.137Z,51.57
2018-10-07T12:34:30.147Z,51.4
2018-10-07T12:35:29.911Z,51.5
2018-10-07T12:36:30.006Z,51.57
2018-10-07T12:37:30.194Z,51.47
2018-10-07T12:38:30.204Z,51.86
2018-10-07T12:39:30.218Z,52.34
2018-10-07T12:40:30.224Z,52.42
2018-10-07T12:41:30.241Z,52.06
2018-10-07T12:42:30.329Z,51.93
2018-10-07T12:43:30.271Z,52.22
2018-10-07T12:44:30.284Z,52.32
2018-10-07T12:45:30.300Z,52.03
2018-10-07T12:46:30.312Z,52.03
2018-10-07T12:47:30.321Z,52.42
2018-10-07T12:48:30.333Z,53.36
2018-10-07T12:49:30.093Z,53
2018-10-07T12:50:30.359Z,53.26
2018-10-07T12:51:30.423Z,54.33
2018-10-07T12:52:30.382Z,53.75
2018-10-07T12:53:30.142Z,54.16
2018-10-07T12:54:30.563Z,53.77
2018-10-07T12:55:30.425Z,53.31